Time;durP1;ratioP1;P1;durP2;ratioP2;P2;SDS_P1;SDS_P2;PMS_P1;PMS_P2;Temp;Humidity;BMP_temperature;BMP_pressure;BME280_temperature;BME280_humidity;BME280_pressure;Samples;Min_cycle;Max_cycle;Signal;HPM_P1;HPM_P2
2022/12/18 00:00:29;;;;;;;21.70;10.20;;;21.20;50.30;;;;;;212077;1315;24291;-44
2022/12/18 00:05:59;;;;;;;20.80;10.00;;;21.30;50.00;;;;;;211947;1317;22555;-44
2022/12/18 00:11:08;;;;;;;23.50;9.30;;;21.20;50.90;;;;;;212174;1304;24307;-42
2022/12/18 00:16:21;;;;;;;19.10;9.90;;;21.20;52.20;;;;;;211828;1317;25409;-43
2022/12/18 00:21:37;;;;;;;18.40;9.90;;;21.20;51.70;;;;;;211501;1299;23337;-44
2022/12/18 00:26:53;;;;;;;17.50;9.60;;;21.10;51.50;;;;;;211347;1296;22868;-43
2022/12/18 00:31:58;;;;;;;18.10;9.50;;;21.20;51.30;;;;;;211537;1320;22489;-45
2022/12/18 00:37:06;;;;;;;15.80;9.30;;;21.00;51.10;;;;;;211555;1296;24246;-44
2022/12/18 00:47:50;;;;;;;17.40;10.00;;;21.00;50.50;;;;;;211451;1305;22860;-43
2022/12/18 00:52:54;;;;;;;16.20;9.70;;;21.00;50.60;;;;;;211718;1309;24240;-45
2022/12/18 00:58:02;;;;;;;15.30;9.10;;;20.90;50.90;;;;;;211525;1303;22756;-43
2022/12/18 01:03:20;;;;;;;15.10;9.10;;;21.00;50.90;;;;;;211407;1296;22861;-43
2022/12/18 01:08:26;;;;;;;14.30;8.60;;;21.40;50.60;;;;;;211479;1288;24235;-45
2022/12/18 01:13:32;;;;;;;14.80;9.10;;;21.70;49.30;;;;;;212559;1299;24372;-45
2022/12/18 01:18:41;;;;;;;15.00;9.00;;;22.00;48.70;;;;;;211633;1307;24246;-43
2022/12/18 01:23:45;;;;;;;17.10;10.00;;;22.20;48.10;;;;;;214381;1306;23092;-44
2022/12/18 01:28:49;;;;;;;14.30;8.90;;;22.40;47.70;;;;;;212008;1304;25392;-43
2022/12/18 01:33:54;;;;;;;13.10;8.40;;;22.50;47.30;;;;;;212065;1317;24030;-43
2022/12/18 01:39:15;;;;;;;14.70;9.40;;;22.60;47.00;;;;;;211964;1317;22736;-43
2022/12/18 01:44:57;;;;;;;14.20;8.80;;;22.70;46.90;;;;;;212009;1317;22548;-45
2022/12/18 01:50:30;;;;;;;14.40;8.40;;;22.80;46.70;;;;;;212018;1309;24017;-44
2022/12/18 01:55:42;;;;;;;14.50;8.80;;;22.90;46.50;;;;;;211962;1317;24026;-43
2022/12/18 02:00:46;;;;;;;15.70;8.80;;;22.90;46.50;;;;;;211971;1312;22881;-45
2022/12/18 02:05:57;;;;;;;18.10;9.90;;;22.90;46.50;;;;;;212074;1314;25296;-45
2022/12/18 02:11:07;;;;;;;13.00;7.90;;;22.90;46.30;;;;;;212118;1310;25738;-43
2022/12/18 02:16:26;;;;;;;12.50;8.00;;;22.90;46.30;;;;;;212121;1296;22496;-45
2022/12/18 02:21:48;;;;;;;14.10;8.80;;;22.90;46.60;;;;;;211989;1303;22531;-43
2022/12/18 02:26:59;;;;;;;12.10;7.50;;;23.00;46.30;;;;;;212017;1296;24009;-51
2022/12/18 02:32:11;;;;;;;13.20;8.60;;;22.90;46.30;;;;;;212064;1305;25622;-46
2022/12/18 02:37:18;;;;;;;12.50;8.00;;;22.80;46.40;;;;;;212002;1316;23935;-45
2022/12/18 02:42:24;;;;;;;11.90;7.60;;;22.70;46.50;;;;;;212107;1306;24354;-46
2022/12/18 02:47:32;;;;;;;13.50;8.20;;;22.60;47.40;;;;;;211744;1303;24252;-44
2022/12/18 02:52:53;;;;;;;13.10;7.70;;;22.40;47.00;;;;;;212020;1312;24352;-44
2022/12/18 02:58:30;;;;;;;12.70;8.60;;;22.30;47.20;;;;;;211968;1317;22462;-44
2022/12/18 03:03:41;;;;;;;11.50;8.00;;;22.10;48.00;;;;;;212004;1317;24346;-44
2022/12/18 03:08:51;;;;;;;12.70;8.20;;;22.00;47.70;;;;;;211936;1311;24488;-46
2022/12/18 03:13:58;;;;;;;12.70;8.30;;;21.90;47.90;;;;;;211949;1317;24227;-42
2022/12/18 03:19:06;;;;;;;14.00;8.00;;;21.70;48.20;;;;;;211949;1305;22530;-43
2022/12/18 03:24:13;;;;;;;13.00;8.10;;;21.70;48.20;;;;;;212236;1303;24693;-43
2022/12/18 03:29:38;;;;;;;12.30;8.20;;;21.60;48.30;;;;;;211948;1311;25284;-44
2022/12/18 03:34:44;;;;;;;11.50;7.40;;;21.60;48.30;;;;;;212006;1312;24189;-42
2022/12/18 03:39:49;;;;;;;15.70;8.40;;;21.50;48.40;;;;;;211980;1317;22500;-43
2022/12/18 03:44:53;;;;;;;12.40;7.90;;;21.40;48.30;;;;;;212009;1298;24285;-43
2022/12/18 03:50:22;;;;;;;14.60;8.10;;;21.40;48.50;;;;;;212091;1308;22496;-46
2022/12/18 03:55:31;;;;;;;11.70;7.30;;;21.30;48.60;;;;;;212024;1299;24770;-45
2022/12/18 04:00:36;;;;;;;13.00;7.80;;;21.20;48.70;;;;;;211956;1303;22496;-45
2022/12/18 04:05:45;;;;;;;10.60;7.30;;;21.10;48.80;;;;;;211673;1297;24971;-44
2022/12/18 04:10:50;;;;;;;11.00;7.70;;;21.20;48.90;;;;;;212106;1305;24260;-45
2022/12/18 04:15:54;;;;;;;10.70;6.90;;;21.10;48.90;;;;;;212761;1303;22853;-47
2022/12/18 04:20:59;;;;;;;10.90;6.30;;;21.20;49.20;;;;;;211949;1303;23233;-44
2022/12/18 04:26:03;;;;;;;10.80;7.10;;;21.50;48.40;;;;;;211996;1310;22484;-43
2022/12/18 04:31:27;;;;;;;11.20;7.00;;;21.80;48.10;;;;;;211897;1315;22472;-44
2022/12/18 04:36:31;;;;;;;9.80;6.30;;;22.10;47.40;;;;;;211998;1310;24208;-44
2022/12/18 04:41:35;;;;;;;9.20;6.50;;;22.30;47.10;;;;;;211990;1312;24714;-43
2022/12/18 04:46:39;;;;;;;11.70;6.70;;;22.40;46.60;;;;;;212003;1318;23907;-44
2022/12/18 04:51:43;;;;;;;9.40;6.50;;;22.60;46.40;;;;;;212024;1310;24021;-44
2022/12/18 04:56:47;;;;;;;10.60;6.80;;;22.60;46.10;;;;;;212024;1318;25314;-43
2022/12/18 05:01:51;;;;;;;9.90;6.90;;;22.70;46.00;;;;;;211997;1295;24270;-43
2022/12/18 05:06:56;;;;;;;11.70;7.20;;;22.70;45.90;;;;;;211999;1293;24258;-45
2022/12/18 05:12:00;;;;;;;11.00;6.50;;;22.70;45.80;;;;;;211964;1310;22546;-46
2022/12/18 05:17:03;;;;;;;9.80;6.80;;;22.80;45.80;;;;;;211996;1318;25432;-45
2022/12/18 05:22:08;;;;;;;10.40;7.20;;;22.80;45.80;;;;;;212107;1309;23045;-43
2022/12/18 05:27:12;;;;;;;10.60;6.80;;;22.90;45.70;;;;;;212098;1310;22622;-44
2022/12/18 05:32:15;;;;;;;10.90;7.20;;;22.90;45.70;;;;;;212008;1317;23865;-47
2022/12/18 05:37:20;;;;;;;10.00;6.10;;;22.90;45.60;;;;;;212059;1317;23894;-47
2022/12/18 05:42:24;;;;;;;10.50;6.90;;;22.90;45.50;;;;;;211963;1303;23960;-44
2022/12/18 05:47:28;;;;;;;9.10;6.20;;;22.90;45.60;;;;;;212161;1301;24284;-44
2022/12/18 05:52:32;;;;;;;9.40;6.80;;;22.90;45.50;;;;;;212151;1317;25525;-42
2022/12/18 05:57:36;;;;;;;11.10;6.70;;;23.00;45.50;;;;;;212130;1307;24213;-44
2022/12/18 06:02:39;;;;;;;10.20;6.30;;;23.00;45.50;;;;;;212107;1307;22562;-42
2022/12/18 06:07:43;;;;;;;10.20;6.40;;;23.00;45.70;;;;;;212008;1317;22487;-43
2022/12/18 06:12:47;;;;;;;9.00;6.10;;;22.90;45.90;;;;;;212042;1308;25427;-44
2022/12/18 06:17:51;;;;;;;10.10;6.50;;;22.70;46.00;;;;;;211950;1310;22689;-46
2022/12/18 06:22:55;;;;;;;11.90;5.70;;;22.60;46.60;;;;;;212169;1302;24227;-46
2022/12/18 06:27:59;;;;;;;9.50;6.50;;;22.50;46.30;;;;;;212038;1314;23322;-42
2022/12/18 06:33:03;;;;;;;9.10;6.30;;;22.40;46.40;;;;;;212002;1315;25118;-45
2022/12/18 06:38:07;;;;;;;9.40;6.70;;;22.30;46.70;;;;;;212042;1310;22499;-45
2022/12/18 06:43:11;;;;;;;10.50;6.40;;;22.20;46.90;;;;;;212047;1309;22485;-44
2022/12/18 06:48:14;;;;;;;8.80;6.00;;;22.00;47.00;;;;;;212119;1309;22477;-43
2022/12/18 06:53:18;;;;;;;9.70;6.90;;;21.90;47.10;;;;;;212050;1314;22835;-43
2022/12/18 06:58:22;;;;;;;9.10;6.70;;;21.80;47.30;;;;;;212017;1296;22779;-41
2022/12/18 07:03:26;;;;;;;8.90;6.20;;;21.80;47.50;;;;;;212011;1309;23897;-44
2022/12/18 07:08:31;;;;;;;9.40;6.50;;;21.70;47.60;;;;;;211976;1298;24310;-44
2022/12/18 07:13:35;;;;;;;8.60;6.40;;;21.60;47.70;;;;;;212009;1303;24292;-43
2022/12/18 07:18:49;;;;;;;8.60;6.30;;;21.60;47.80;;;;;;212071;1314;23912;-43
2022/12/18 07:23:57;;;;;;;9.70;6.60;;;21.50;48.10;;;;;;212073;1295;22532;-43
2022/12/18 07:29:11;;;;;;;9.80;6.30;;;21.50;47.90;;;;;;212042;1303;24765;-44
2022/12/18 07:34:20;;;;;;;10.60;6.60;;;21.40;47.90;;;;;;211972;1305;22503;-44
2022/12/18 07:39:30;;;;;;;11.20;7.20;;;21.30;48.50;;;;;;212086;1303;24572;-43
2022/12/18 07:44:38;;;;;;;9.70;6.40;;;21.30;48.10;;;;;;211985;1317;24373;-44
2022/12/18 07:49:56;;;;;;;9.20;6.20;;;21.30;48.40;;;;;;211956;1298;22495;-42
2022/12/18 07:55:42;;;;;;;7.90;5.80;;;21.60;48.10;;;;;;211932;1308;23656;-47
2022/12/18 08:01:24;;;;;;;8.70;5.70;;;21.90;47.50;;;;;;211524;1317;23105;-43
2022/12/18 08:06:59;;;;;;;12.80;6.30;;;22.20;47.10;;;;;;212058;1302;24262;-43
2022/12/18 08:12:22;;;;;;;8.40;6.00;;;22.30;46.70;;;;;;212101;1317;22538;-45
2022/12/18 08:17:31;;;;;;;8.70;6.20;;;22.40;46.70;;;;;;212005;1296;22529;-43
2022/12/18 08:22:40;;;;;;;10.30;6.80;;;22.50;46.30;;;;;;212074;1310;22500;-45
2022/12/18 08:28:04;;;;;;;11.10;6.80;;;22.60;46.30;;;;;;212197;1314;25586;-49
2022/12/18 08:33:14;;;;;;;9.50;6.40;;;22.60;46.00;;;;;;211953;1309;22652;-44
2022/12/18 08:38:25;;;;;;;9.20;6.60;;;22.70;46.10;;;;;;212092;1316;23881;-47
2022/12/18 08:48:54;;;;;;;11.80;6.40;;;22.70;45.90;;;;;;212145;1317;26016;-45
2022/12/18 08:54:01;;;;;;;9.70;6.60;;;22.80;46.00;;;;;;211984;1296;22500;-46
2022/12/18 08:59:09;;;;;;;9.40;6.90;;;22.80;45.90;;;;;;211979;1311;23073;-46
2022/12/18 09:04:25;;;;;;;9.60;7.20;;;22.80;45.70;;;;;;212160;1316;24324;-43
2022/12/18 09:09:29;;;;;;;11.30;6.60;;;22.80;45.70;;;;;;212186;1317;25364;-43
2022/12/18 09:14:35;;;;;;;9.10;6.20;;;22.90;45.80;;;;;;212150;1314;25238;-43
2022/12/18 09:19:43;;;;;;;9.00;6.10;;;22.80;45.80;;;;;;211819;1311;22679;-44
2022/12/18 09:24:52;;;;;;;12.00;6.90;;;22.90;45.70;;;;;;212081;1308;22637;-42
2022/12/18 09:30:01;;;;;;;9.40;7.10;;;22.90;46.00;;;;;;212021;1299;23874;-44
2022/12/18 09:35:05;;;;;;;9.40;7.00;;;22.90;45.60;;;;;;212002;1316;25538;-42
2022/12/18 09:40:31;;;;;;;9.50;6.90;;;22.90;45.50;;;;;;211945;1311;22610;-44
2022/12/18 09:45:45;;;;;;;8.70;6.10;;;22.90;45.50;;;;;;211947;1301;22535;-42
2022/12/18 09:51:05;;;;;;;10.50;7.40;;;23.00;45.50;;;;;;211861;1302;22497;-43
2022/12/18 09:56:32;;;;;;;9.60;7.00;;;23.00;45.40;;;;;;211910;1306;25335;-42
2022/12/18 10:01:55;;;;;;;13.70;7.40;;;23.00;45.40;;;;;;211673;1305;24303;-43
2022/12/18 10:07:31;;;;;;;8.30;5.90;;;23.00;45.20;;;;;;211754;1308;23244;-42
2022/12/18 10:13:14;;;;;;;9.00;6.50;;;23.00;45.70;;;;;;211888;1302;26597;-43
2022/12/18 10:19:23;;;;;;;9.90;7.00;;;23.10;45.40;;;;;;211955;1303;22506;-41
2022/12/18 10:25:18;;;;;;;;;;;;;;;;;;;;;
2022/12/18 10:30:46;;;;;;;9.10;6.20;;;23.20;45.10;;;;;;209874;1311;22497;-42
2022/12/18 10:35:58;;;;;;;15.20;7.60;;;23.20;45.60;;;;;;211770;1300;25335;-43
2022/12/18 10:41:05;;;;;;;16.80;7.60;;;23.10;47.10;;;;;;212130;1311;25279;-44
2022/12/18 10:46:20;;;;;;;15.70;8.00;;;23.00;47.10;;;;;;212152;1312;22570;-45
2022/12/18 10:51:37;;;;;;;18.70;8.00;;;23.00;47.00;;;;;;212285;1309;22491;-44
2022/12/18 10:57:15;;;;;;;19.40;8.00;;;22.90;47.00;;;;;;212236;1304;24703;-44
2022/12/18 11:02:38;;;;;;;20.60;8.50;;;22.70;47.00;;;;;;212069;1317;24393;-43
2022/12/18 11:08:05;;;;;;;16.30;8.80;;;22.50;48.10;;;;;;212132;1316;23707;-45
2022/12/18 11:13:47;;;;;;;21.00;9.60;;;22.40;47.00;;;;;;210918;1308;24239;-46
2022/12/18 11:19:20;;;;;;;18.30;8.60;;;22.40;50.40;;;;;;211083;1314;25656;-45
2022/12/18 11:24:37;;;;;;;14.70;9.30;;;22.40;51.20;;;;;;211059;1319;22599;-46
2022/12/18 11:29:47;;;;;;;15.10;9.30;;;22.40;50.40;;;;;;211275;1308;22731;-44
2022/12/18 11:35:55;;;;;;;19.70;9.40;;;22.30;50.30;;;;;;210963;1321;24241;-45
2022/12/18 11:42:08;;;;;;;14.90;9.70;;;22.20;50.20;;;;;;211447;1313;22851;-43
2022/12/18 11:47:03;;;;;;;19.00;10.10;;;22.10;50.60;;;;;;211974;1299;24265;-45
2022/12/18 11:52:10;;;;;;;19.00;10.30;;;22.00;49.70;;;;;;212018;1306;24327;-44
2022/12/18 11:57:19;;;;;;;23.00;11.90;;;21.90;49.70;;;;;;211939;1318;25408;-44
2022/12/18 12:02:30;;;;;;;20.50;11.40;;;21.80;49.80;;;;;;211895;1315;25220;-45
2022/12/18 12:08:18;;;;;;;22.00;11.10;;;21.70;49.70;;;;;;211982;1290;23209;-45
2022/12/18 12:14:12;;;;;;;15.80;10.40;;;21.80;50.00;;;;;;209839;1295;2992798;-43
2022/12/18 12:19:36;;;;;;;20.60;10.10;;;21.70;49.70;;;;;;212098;1296;23045;-41
2022/12/18 12:25:26;;;;;;;25.10;11.60;;;21.60;49.40;;;;;;212176;1299;24286;-44
2022/12/18 12:31:08;;;;;;;21.80;11.30;;;21.60;50.00;;;;;;212095;1311;25326;-42
2022/12/18 12:36:45;;;;;;;19.80;11.50;;;21.50;50.60;;;;;;212112;1317;27870;-44
2022/12/18 12:47:28;;;;;;;20.80;12.30;;;21.50;49.70;;;;;;212023;1312;22603;-47
2022/12/18 12:52:53;;;;;;;19.80;11.10;;;21.40;50.30;;;;;;212118;1299;24332;-48
2022/12/18 12:58:23;;;;;;;18.40;11.10;;;21.30;49.50;;;;;;212182;1311;24351;-45
2022/12/18 13:03:48;;;;;;;22.90;12.90;;;21.30;49.30;;;;;;212077;1317;24283;-47
2022/12/18 13:09:00;;;;;;;24.40;13.20;;;21.20;49.50;;;;;;212028;1315;25394;-47
2022/12/18 13:14:21;;;;;;;21.10;11.50;;;21.10;50.10;;;;;;212005;1309;23704;-46
2022/12/18 13:19:26;;;;;;;22.10;12.80;;;21.10;50.40;;;;;;212072;1306;24268;-44
2022/12/18 13:24:37;;;;;;;21.60;11.80;;;21.10;50.60;;;;;;211970;1304;22495;-50
2022/12/18 13:29:44;;;;;;;30.20;12.20;;;21.00;50.80;;;;;;212041;1310;22754;-49
2022/12/18 13:35:27;;;;;;;22.30;11.60;;;21.00;51.20;;;;;;211999;1303;22449;-44
2022/12/18 13:40:55;;;;;;;25.00;12.20;;;21.00;51.30;;;;;;212156;1311;24155;-47
2022/12/18 13:46:29;;;;;;;24.40;11.70;;;20.90;50.60;;;;;;211984;1316;22501;-46
2022/12/18 13:52:15;;;;;;;26.10;12.10;;;20.80;50.50;;;;;;211867;1318;25979;-43
2022/12/18 13:57:38;;;;;;;21.80;12.30;;;20.70;51.10;;;;;;211806;1299;22494;-44
2022/12/18 14:02:51;;;;;;;23.10;11.90;;;20.90;51.30;;;;;;211748;1299;22722;-45
2022/12/18 14:08:10;;;;;;;20.30;10.80;;;21.40;50.00;;;;;;212065;1297;24473;-44
2022/12/18 14:13:43;;;;;;;22.00;10.50;;;21.70;49.10;;;;;;212177;1305;24338;-46
2022/12/18 14:19:17;;;;;;;27.80;10.80;;;21.90;49.40;;;;;;212112;1316;25261;-46
2022/12/18 14:24:42;;;;;;;22.10;10.30;;;22.20;48.50;;;;;;211896;1311;24035;-46
2022/12/18 14:29:59;;;;;;;25.00;10.70;;;22.20;48.00;;;;;;212032;1318;22488;-45
2022/12/18 14:35:13;;;;;;;25.20;10.70;;;22.30;48.30;;;;;;212005;1303;25330;-47
2022/12/18 14:40:45;;;;;;;22.50;10.60;;;22.40;47.70;;;;;;212047;1310;26167;-47
2022/12/18 14:45:56;;;;;;;24.10;10.70;;;22.60;47.40;;;;;;212019;1311;25217;-47
2022/12/18 14:51:34;;;;;;;;;;;;;;;;;;;;;
2022/12/18 14:57:21;;;;;;;17.50;10.80;;;22.70;47.10;;;;;;212454;1305;22477;-54
2022/12/18 15:02:35;;;;;;;;;;;22.80;47.30;;;;;;212012;1297;24450;-46
2022/12/18 15:07:47;;;;;;;16.70;10.00;;;22.90;47.40;;;;;;212118;1295;22725;-44
2022/12/18 15:12:57;;;;;;;19.20;11.50;;;23.00;47.20;;;;;;212276;1300;26671;-50
2022/12/18 15:18:08;;;;;;;21.20;10.30;;;23.00;46.80;;;;;;212078;1299;22513;-48
2022/12/18 15:23:35;;;;;;;20.40;11.40;;;23.10;46.30;;;;;;212098;1296;24835;-47
2022/12/18 15:28:54;;;;;;;19.10;11.00;;;23.20;46.60;;;;;;212254;1299;24356;-45
2022/12/18 15:34:13;;;;;;;17.30;10.60;;;23.30;46.20;;;;;;212206;1291;22523;-45
2022/12/18 15:39:24;;;;;;;17.30;10.60;;;23.20;46.60;;;;;;212048;1312;22984;-47
2022/12/18 15:44:37;;;;;;;17.10;11.30;;;23.10;46.50;;;;;;212115;1311;22569;-45
2022/12/18 15:50:02;;;;;;;;;;;;;;;;;;;;;
2022/12/18 16:00:40;;;;;;;17.70;11.00;;;22.60;47.10;;;;;;212196;1296;22498;-46
2022/12/18 16:05:54;;;;;;;19.80;9.70;;;22.50;47.30;;;;;;212289;1296;22532;-45
2022/12/18 16:11:03;;;;;;;18.70;10.70;;;22.30;47.70;;;;;;212254;1306;22628;-45
2022/12/18 16:16:12;;;;;;;16.70;10.60;;;22.20;47.30;;;;;;212089;1306;22483;-46
2022/12/18 16:21:15;;;;;;;20.70;10.60;;;22.00;47.40;;;;;;212160;1311;23410;-46
2022/12/18 16:26:23;;;;;;;16.40;10.90;;;21.90;47.20;;;;;;212152;1311;25403;-46
2022/12/18 16:31:27;;;;;;;19.30;11.40;;;21.80;49.30;;;;;;212016;1297;22488;-49
2022/12/18 16:36:31;;;;;;;16.70;11.60;;;21.70;51.10;;;;;;212204;1299;25357;-46
2022/12/18 16:41:35;;;;;;;21.00;10.80;;;21.60;50.20;;;;;;212182;1310;25526;-46
2022/12/18 16:46:45;;;;;;;16.30;10.80;;;21.50;49.70;;;;;;212242;1306;22545;-48
2022/12/18 16:51:53;;;;;;;24.10;10.30;;;21.50;49.30;;;;;;212158;1317;23865;-50
2022/12/18 16:56:57;;;;;;;20.10;12.60;;;21.50;50.00;;;;;;212066;1310;23973;-46
2022/12/18 17:02:01;;;;;;;19.10;11.10;;;21.40;49.50;;;;;;212269;1309;25293;-51
2022/12/18 17:07:07;;;;;;;17.30;9.60;;;21.30;49.20;;;;;;212235;1301;22614;-49
2022/12/18 17:12:12;;;;;;;18.60;11.10;;;21.30;49.20;;;;;;212190;1297;24325;-44
2022/12/18 17:17:16;;;;;;;20.50;11.50;;;21.30;49.30;;;;;;212137;1318;22486;-45
2022/12/18 17:22:25;;;;;;;19.30;12.30;;;21.20;49.70;;;;;;212243;1300;25348;-46
2022/12/18 17:27:29;;;;;;;19.00;11.70;;;21.10;49.10;;;;;;212070;1318;24204;-48
2022/12/18 17:32:33;;;;;;;20.60;10.90;;;21.20;49.00;;;;;;212130;1301;25442;-45
2022/12/18 17:37:36;;;;;;;23.20;11.70;;;21.10;48.80;;;;;;211968;1313;25421;-45
2022/12/18 17:42:40;;;;;;;18.60;11.70;;;21.20;49.50;;;;;;212104;1311;25313;-46
2022/12/18 17:47:47;;;;;;;19.90;12.20;;;21.70;48.40;;;;;;211876;1318;22549;-45
2022/12/18 17:52:55;;;;;;;21.90;13.10;;;22.10;47.60;;;;;;212361;1308;22484;-45
2022/12/18 17:58:01;;;;;;;18.60;13.10;;;22.30;47.40;;;;;;212120;1317;25295;-50
2022/12/18 18:03:07;;;;;;;19.90;13.00;;;22.60;46.40;;;;;;212320;1290;22503;-46
2022/12/18 18:08:12;;;;;;;23.20;13.70;;;22.70;46.40;;;;;;211947;1311;22577;-45
2022/12/18 18:18:49;;;;;;;21.30;13.60;;;23.00;46.50;;;;;;212155;1313;22642;-48
2022/12/18 18:23:54;;;;;;;21.20;14.00;;;23.00;46.20;;;;;;212349;1318;23873;-47
2022/12/18 18:29:05;;;;;;;20.20;12.70;;;23.00;45.70;;;;;;212320;1299;24253;-44
2022/12/18 18:34:15;;;;;;;21.70;15.30;;;23.00;45.20;;;;;;212171;1316;25219;-45
2022/12/18 18:39:19;;;;;;;20.70;14.80;;;23.00;45.30;;;;;;212190;1315;22670;-45
2022/12/18 18:44:26;;;;;;;25.00;14.80;;;23.10;44.80;;;;;;212212;1300;23186;-45
2022/12/18 18:49:30;;;;;;;21.20;14.30;;;23.10;44.50;;;;;;212175;1315;25526;-44
2022/12/18 18:54:35;;;;;;;22.90;14.30;;;23.10;44.20;;;;;;212118;1299;23492;-45
2022/12/18 18:59:40;;;;;;;54.00;38.50;;;23.20;44.10;;;;;;212087;1316;22724;-45
2022/12/18 19:04:48;;;;;;;49.10;36.10;;;23.30;44.50;;;;;;212188;1297;24711;-45
2022/12/18 19:09:53;;;;;;;49.80;34.10;;;23.10;44.60;;;;;;212248;1301;22489;-44
2022/12/18 19:14:57;;;;;;;42.50;33.20;;;23.00;44.50;;;;;;212211;1315;22638;-45
2022/12/18 19:20:09;;;;;;;45.40;32.00;;;22.90;44.80;;;;;;212258;1287;24268;-47
2022/12/18 19:25:17;;;;;;;43.70;29.40;;;22.80;46.00;;;;;;212413;1306;22513;-51
2022/12/18 19:30:37;;;;;;;43.20;28.90;;;22.60;45.70;;;;;;212130;1302;22549;-46
2022/12/18 19:36:14;;;;;;;46.00;27.90;;;22.50;46.20;;;;;;212067;1311;25502;-48
2022/12/18 19:41:22;;;;;;;44.50;28.50;;;22.40;46.60;;;;;;212169;1317;24298;-46
2022/12/18 19:46:50;;;;;;;40.50;27.40;;;22.20;45.40;;;;;;212159;1317;22806;-44
2022/12/18 19:52:09;;;;;;;46.60;25.30;;;22.10;46.60;;;;;;212284;1296;24250;-46
2022/12/18 19:57:28;;;;;;;43.30;26.90;;;22.00;45.80;;;;;;212088;1299;25233;-47
2022/12/18 20:02:36;;;;;;;48.90;25.20;;;21.90;46.00;;;;;;212348;1310;23918;-47
2022/12/18 20:07:59;;;;;;;43.60;26.20;;;21.80;45.40;;;;;;212203;1297;24234;-45
2022/12/18 20:13:18;;;;;;;49.50;25.00;;;21.80;45.60;;;;;;212387;1303;22610;-43
2022/12/18 20:18:33;;;;;;;38.20;26.20;;;21.70;46.70;;;;;;212169;1293;24284;-44
2022/12/18 20:23:38;;;;;;;38.10;24.90;;;21.60;46.70;;;;;;212248;1295;24259;-44
2022/12/18 20:28:56;;;;;;;44.10;25.10;;;21.50;46.90;;;;;;212208;1315;25315;-45
2022/12/18 20:34:19;;;;;;;40.70;24.10;;;21.40;46.60;;;;;;212290;1310;26000;-45
2022/12/18 20:39:44;;;;;;;37.60;23.90;;;21.40;47.90;;;;;;212212;1305;22771;-43
2022/12/18 20:45:01;;;;;;;34.50;22.20;;;21.30;46.30;;;;;;212268;1307;22494;-47
2022/12/18 20:50:09;;;;;;;40.40;25.50;;;21.20;46.90;;;;;;212372;1317;25678;-44
2022/12/18 20:55:16;;;;;;;39.70;19.50;;;21.10;46.60;;;;;;212172;1315;24050;-46
2022/12/18 21:00:36;;;;;;;35.00;19.10;;;21.10;46.30;;;;;;212112;1298;24248;-45
2022/12/18 21:06:11;;;;;;;36.70;23.00;;;21.50;45.80;;;;;;212063;1317;22588;-46
2022/12/18 21:17:41;;;;;;;33.30;17.60;;;22.00;45.00;;;;;;212207;1317;24433;-44
2022/12/18 21:23:10;;;;;;;30.50;18.30;;;22.30;44.70;;;;;;212215;1308;23820;-45
2022/12/18 21:28:50;;;;;;;27.50;17.70;;;22.40;44.60;;;;;;211969;1300;24196;-44
2022/12/18 21:34:03;;;;;;;;;;;22.60;44.70;;;;;;212038;1305;22876;-44
2022/12/18 21:39:10;;;;;;;26.80;17.90;;;22.70;44.80;;;;;;212162;1301;22454;-45
2022/12/18 21:44:17;;;;;;;22.90;13.90;;;22.80;44.80;;;;;;212307;1297;24258;-45
2022/12/18 21:49:21;;;;;;;25.60;16.50;;;22.90;44.20;;;;;;212012;1294;25378;-43
2022/12/18 21:54:29;;;;;;;27.20;17.60;;;22.70;43.90;;;;;;212046;1317;24139;-43
2022/12/18 21:59:49;;;;;;;32.10;18.10;;;22.70;43.90;;;;;;212256;1306;23580;-46
2022/12/18 22:04:55;;;;;;;27.70;17.30;;;22.70;44.20;;;;;;211804;1299;24234;-43
2022/12/18 22:10:00;;;;;;;26.90;17.20;;;22.50;44.30;;;;;;212107;1317;24023;-45
2022/12/18 22:15:07;;;;;;;22.50;14.70;;;22.50;44.70;;;;;;212330;1309;22573;-44
2022/12/18 22:20:11;;;;;;;23.10;14.20;;;22.60;44.60;;;;;;212171;1310;24253;-44
2022/12/18 22:25:18;;;;;;;23.40;14.50;;;22.70;44.30;;;;;;212186;1308;23912;-45
2022/12/18 22:30:23;;;;;;;21.90;13.90;;;22.80;44.20;;;;;;212068;1305;22614;-45
2022/12/18 22:35:27;;;;;;;24.00;15.30;;;22.90;44.80;;;;;;212208;1317;23900;-46
2022/12/18 22:40:42;;;;;;;21.30;15.00;;;22.90;44.50;;;;;;212211;1315;23922;-43
2022/12/18 22:45:47;;;;;;;22.80;14.70;;;22.90;44.60;;;;;;212132;1297;25712;-47
2022/12/18 22:50:52;;;;;;;24.10;15.90;;;22.90;44.60;;;;;;212148;1314;25530;-44
2022/12/18 22:56:04;;;;;;;22.50;14.50;;;22.80;44.70;;;;;;212196;1303;22541;-44
2022/12/18 23:01:19;;;;;;;21.80;14.50;;;22.90;44.60;;;;;;212247;1302;22591;-44
2022/12/18 23:06:27;;;;;;;24.10;13.40;;;22.90;45.00;;;;;;212252;1305;22538;-45
2022/12/18 23:11:31;;;;;;;27.20;15.50;;;22.90;46.20;;;;;;212130;1317;23867;-44
2022/12/18 23:16:35;;;;;;;21.40;13.60;;;22.90;46.90;;;;;;212236;1307;22586;-46
2022/12/18 23:21:50;;;;;;;21.90;14.30;;;23.00;47.30;;;;;;212262;1290;24231;-45
2022/12/18 23:26:53;;;;;;;24.70;14.40;;;23.10;47.30;;;;;;212083;1301;24460;-45
2022/12/18 23:31:57;;;;;;;25.90;14.00;;;22.90;47.90;;;;;;212132;1311;26489;-44
2022/12/18 23:37:02;;;;;;;21.90;14.00;;;22.80;48.10;;;;;;212349;1309;22624;-46
2022/12/18 23:42:06;;;;;;;24.00;15.00;;;22.60;48.10;;;;;;212199;1301;22494;-44
2022/12/18 23:47:10;;;;;;;24.30;14.30;;;22.60;48.60;;;;;;212115;1317;25413;-50
2022/12/18 23:52:13;;;;;;;22.50;14.70;;;22.40;48.70;;;;;;212392;1310;23871;-47
2022/12/18 23:57:21;;;;;;;20.80;13.30;;;22.30;48.60;;;;;;212118;1316;22718;-44
